sensor_id;sensor_type;location;lat;lon;timestamp;P1;durP1;ratioP1;P2;durP2;ratioP2
24663;SDS011;12791;50.992;13.788;2023-07-28T00:00:37;0.20;;;0.20;;
24663;SDS011;12791;50.992;13.788;2023-07-28T00:03:05;0.20;;;0.20;;
24663;SDS011;12791;50.992;13.788;2023-07-28T00:05:32;0.25;;;0.20;;
24663;SDS011;12791;50.992;13.788;2023-07-28T00:07:59;0.38;;;0.20;;
24663;SDS011;12791;50.992;13.788;2023-07-28T00:10:26;0.30;;;0.30;;
24663;SDS011;12791;50.992;13.788;2023-07-28T00:12:52;1.10;;;0.30;;
24663;SDS011;12791;50.992;13.788;2023-07-28T00:15:19;1.35;;;0.47;;
24663;SDS011;12791;50.992;13.788;2023-07-28T00:17:46;0.30;;;0.30;;
24663;SDS011;12791;50.992;13.788;2023-07-28T00:20:14;1.27;;;0.30;;
24663;SDS011;12791;50.992;13.788;2023-07-28T00:22:41;1.38;;;0.47;;
24663;SDS011;12791;50.992;13.788;2023-07-28T00:25:08;1.23;;;0.30;;
24663;SDS011;12791;50.992;13.788;2023-07-28T00:27:34;0.22;;;0.20;;
24663;SDS011;12791;50.992;13.788;2023-07-28T00:30:01;0.30;;;0.30;;
24663;SDS011;12791;50.992;13.788;2023-07-28T00:32:28;1.33;;;0.30;;
24663;SDS011;12791;50.992;13.788;2023-07-28T00:34:55;0.30;;;0.30;;
24663;SDS011;12791;50.992;13.788;2023-07-28T00:37:23;0.40;;;0.32;;
24663;SDS011;12791;50.992;13.788;2023-07-28T00:39:49;1.13;;;0.30;;
24663;SDS011;12791;50.992;13.788;2023-07-28T00:42:16;0.32;;;0.32;;
24663;SDS011;12791;50.992;13.788;2023-07-28T00:44:43;1.00;;;0.30;;
24663;SDS011;12791;50.992;13.788;2023-07-28T00:47:09;0.52;;;0.30;;
24663;SDS011;12791;50.992;13.788;2023-07-28T00:49:36;0.93;;;0.50;;
24663;SDS011;12791;50.992;13.788;2023-07-28T00:52:06;1.55;;;0.40;;
24663;SDS011;12791;50.992;13.788;2023-07-28T00:54:36;0.50;;;0.40;;
24663;SDS011;12791;50.992;13.788;2023-07-28T00:57:03;0.52;;;0.30;;
24663;SDS011;12791;50.992;13.788;2023-07-28T00:59:30;0.95;;;0.40;;
24663;SDS011;12791;50.992;13.788;2023-07-28T01:01:57;0.47;;;0.40;;
24663;SDS011;12791;50.992;13.788;2023-07-28T01:04:24;1.15;;;0.60;;
24663;SDS011;12791;50.992;13.788;2023-07-28T01:06:53;0.47;;;0.47;;
24663;SDS011;12791;50.992;13.788;2023-07-28T01:09:24;0.70;;;0.50;;
24663;SDS011;12791;50.992;13.788;2023-07-28T01:11:56;1.27;;;0.50;;
24663;SDS011;12791;50.992;13.788;2023-07-28T01:14:24;1.35;;;0.47;;
24663;SDS011;12791;50.992;13.788;2023-07-28T01:16:51;0.60;;;0.60;;
24663;SDS011;12791;50.992;13.788;2023-07-28T01:19:18;1.10;;;0.50;;
24663;SDS011;12791;50.992;13.788;2023-07-28T01:21:48;0.60;;;0.60;;
24663;SDS011;12791;50.992;13.788;2023-07-28T01:24:20;0.50;;;0.50;;
24663;SDS011;12791;50.992;13.788;2023-07-28T01:26:54;1.75;;;0.57;;
24663;SDS011;12791;50.992;13.788;2023-07-28T01:29:22;0.60;;;0.60;;
24663;SDS011;12791;50.992;13.788;2023-07-28T01:31:50;2.50;;;0.50;;
24663;SDS011;12791;50.992;13.788;2023-07-28T01:34:17;2.88;;;0.60;;
24663;SDS011;12791;50.992;13.788;2023-07-28T01:36:44;2.95;;;0.68;;
24663;SDS011;12791;50.992;13.788;2023-07-28T01:39:10;1.27;;;0.50;;
24663;SDS011;12791;50.992;13.788;2023-07-28T01:41:37;0.70;;;0.70;;
24663;SDS011;12791;50.992;13.788;2023-07-28T01:44:09;0.50;;;0.50;;
24663;SDS011;12791;50.992;13.788;2023-07-28T01:46:36;1.30;;;0.63;;
24663;SDS011;12791;50.992;13.788;2023-07-28T01:49:03;2.55;;;0.70;;
24663;SDS011;12791;50.992;13.788;2023-07-28T01:51:29;2.55;;;0.70;;
24663;SDS011;12791;50.992;13.788;2023-07-28T01:53:56;0.93;;;0.60;;
24663;SDS011;12791;50.992;13.788;2023-07-28T01:56:23;1.20;;;0.70;;
24663;SDS011;12791;50.992;13.788;2023-07-28T01:58:49;1.85;;;0.60;;
24663;SDS011;12791;50.992;13.788;2023-07-28T02:01:17;0.95;;;0.60;;
24663;SDS011;12791;50.992;13.788;2023-07-28T02:03:44;0.80;;;0.80;;
24663;SDS011;12791;50.992;13.788;2023-07-28T02:06:11;1.05;;;0.80;;
24663;SDS011;12791;50.992;13.788;2023-07-28T02:08:37;1.27;;;0.73;;
24663;SDS011;12791;50.992;13.788;2023-07-28T02:11:04;0.63;;;0.63;;
24663;SDS011;12791;50.992;13.788;2023-07-28T02:13:31;0.70;;;0.70;;
24663;SDS011;12791;50.992;13.788;2023-07-28T02:15:58;1.27;;;0.93;;
24663;SDS011;12791;50.992;13.788;2023-07-28T02:18:26;2.50;;;0.80;;
24663;SDS011;12791;50.992;13.788;2023-07-28T02:20:52;2.08;;;0.93;;
24663;SDS011;12791;50.992;13.788;2023-07-28T02:23:19;0.60;;;0.60;;
24663;SDS011;12791;50.992;13.788;2023-07-28T02:25:46;0.60;;;0.60;;
24663;SDS011;12791;50.992;13.788;2023-07-28T02:28:12;1.65;;;0.75;;
24663;SDS011;12791;50.992;13.788;2023-07-28T02:30:39;2.67;;;0.70;;
24663;SDS011;12791;50.992;13.788;2023-07-28T02:33:06;0.60;;;0.50;;
24663;SDS011;12791;50.992;13.788;2023-07-28T02:35:34;0.70;;;0.70;;
24663;SDS011;12791;50.992;13.788;2023-07-28T02:38:01;0.60;;;0.60;;
24663;SDS011;12791;50.992;13.788;2023-07-28T02:40:28;0.75;;;0.70;;
24663;SDS011;12791;50.992;13.788;2023-07-28T02:42:55;1.25;;;0.50;;
24663;SDS011;12791;50.992;13.788;2023-07-28T02:45:22;0.82;;;0.55;;
24663;SDS011;12791;50.992;13.788;2023-07-28T02:47:49;0.60;;;0.60;;
24663;SDS011;12791;50.992;13.788;2023-07-28T02:50:16;0.60;;;0.60;;
24663;SDS011;12791;50.992;13.788;2023-07-28T02:52:44;1.27;;;0.60;;
24663;SDS011;12791;50.992;13.788;2023-07-28T02:55:11;0.50;;;0.50;;
24663;SDS011;12791;50.992;13.788;2023-07-28T02:57:37;0.95;;;0.40;;
24663;SDS011;12791;50.992;13.788;2023-07-28T03:00:05;0.80;;;0.50;;
24663;SDS011;12791;50.992;13.788;2023-07-28T03:02:35;0.50;;;0.50;;
24663;SDS011;12791;50.992;13.788;2023-07-28T03:05:02;0.80;;;0.80;;
24663;SDS011;12791;50.992;13.788;2023-07-28T03:07:29;0.73;;;0.73;;
24663;SDS011;12791;50.992;13.788;2023-07-28T03:09:57;1.25;;;0.52;;
24663;SDS011;12791;50.992;13.788;2023-07-28T03:12:24;0.93;;;0.52;;
24663;SDS011;12791;50.992;13.788;2023-07-28T03:14:51;1.67;;;0.70;;
24663;SDS011;12791;50.992;13.788;2023-07-28T03:17:17;0.73;;;0.50;;
24663;SDS011;12791;50.992;13.788;2023-07-28T03:19:44;1.25;;;0.50;;
24663;SDS011;12791;50.992;13.788;2023-07-28T03:22:11;0.60;;;0.60;;
24663;SDS011;12791;50.992;13.788;2023-07-28T03:24:38;1.98;;;0.68;;
24663;SDS011;12791;50.992;13.788;2023-07-28T03:27:06;1.10;;;0.40;;
24663;SDS011;12791;50.992;13.788;2023-07-28T03:29:33;0.50;;;0.50;;
24663;SDS011;12791;50.992;13.788;2023-07-28T03:32:00;1.35;;;0.50;;
24663;SDS011;12791;50.992;13.788;2023-07-28T03:34:26;1.15;;;0.50;;
24663;SDS011;12791;50.992;13.788;2023-07-28T03:36:53;0.65;;;0.47;;
24663;SDS011;12791;50.992;13.788;2023-07-28T03:39:20;0.40;;;0.40;;
24663;SDS011;12791;50.992;13.788;2023-07-28T03:41:46;0.88;;;0.68;;
24663;SDS011;12791;50.992;13.788;2023-07-28T03:44:14;2.53;;;0.50;;
24663;SDS011;12791;50.992;13.788;2023-07-28T03:46:41;1.83;;;0.40;;
24663;SDS011;12791;50.992;13.788;2023-07-28T03:49:08;0.82;;;0.60;;
24663;SDS011;12791;50.992;13.788;2023-07-28T03:51:35;2.15;;;0.50;;
24663;SDS011;12791;50.992;13.788;2023-07-28T03:54:01;0.65;;;0.50;;
24663;SDS011;12791;50.992;13.788;2023-07-28T03:56:28;0.43;;;0.43;;
24663;SDS011;12791;50.992;13.788;2023-07-28T03:58:55;2.28;;;0.63;;
24663;SDS011;12791;50.992;13.788;2023-07-28T04:01:23;1.30;;;0.30;;
24663;SDS011;12791;50.992;13.788;2023-07-28T04:03:50;1.08;;;0.40;;
24663;SDS011;12791;50.992;13.788;2023-07-28T04:06:16;0.38;;;0.35;;
24663;SDS011;12791;50.992;13.788;2023-07-28T04:08:43;1.30;;;0.30;;
24663;SDS011;12791;50.992;13.788;2023-07-28T04:11:10;0.30;;;0.30;;
24663;SDS011;12791;50.992;13.788;2023-07-28T04:13:37;0.30;;;0.30;;
24663;SDS011;12791;50.992;13.788;2023-07-28T04:16:03;0.30;;;0.30;;
24663;SDS011;12791;50.992;13.788;2023-07-28T04:18:32;0.40;;;0.40;;
24663;SDS011;12791;50.992;13.788;2023-07-28T04:20:58;0.50;;;0.50;;
24663;SDS011;12791;50.992;13.788;2023-07-28T04:23:25;1.27;;;0.40;;
24663;SDS011;12791;50.992;13.788;2023-07-28T04:25:52;0.50;;;0.40;;
24663;SDS011;12791;50.992;13.788;2023-07-28T04:28:18;0.45;;;0.40;;
24663;SDS011;12791;50.992;13.788;2023-07-28T04:30:45;1.73;;;0.50;;
24663;SDS011;12791;50.992;13.788;2023-07-28T04:33:12;0.40;;;0.40;;
24663;SDS011;12791;50.992;13.788;2023-07-28T04:35:40;0.52;;;0.35;;
24663;SDS011;12791;50.992;13.788;2023-07-28T04:38:07;0.30;;;0.30;;
24663;SDS011;12791;50.992;13.788;2023-07-28T04:40:33;0.38;;;0.38;;
24663;SDS011;12791;50.992;13.788;2023-07-28T04:43:00;0.75;;;0.47;;
24663;SDS011;12791;50.992;13.788;2023-07-28T04:45:27;0.30;;;0.30;;
24663;SDS011;12791;50.992;13.788;2023-07-28T04:47:53;0.20;;;0.20;;
24663;SDS011;12791;50.992;13.788;2023-07-28T04:50:20;0.80;;;0.30;;
24663;SDS011;12791;50.992;13.788;2023-07-28T04:52:48;1.10;;;0.35;;
24663;SDS011;12791;50.992;13.788;2023-07-28T04:55:15;0.40;;;0.30;;
24663;SDS011;12791;50.992;13.788;2023-07-28T04:57:41;0.30;;;0.30;;
24663;SDS011;12791;50.992;13.788;2023-07-28T05:00:09;0.45;;;0.30;;
24663;SDS011;12791;50.992;13.788;2023-07-28T05:02:36;0.40;;;0.40;;
24663;SDS011;12791;50.992;13.788;2023-07-28T05:05:03;0.63;;;0.30;;
24663;SDS011;12791;50.992;13.788;2023-07-28T05:07:30;0.30;;;0.30;;
24663;SDS011;12791;50.992;13.788;2023-07-28T05:09:57;0.40;;;0.40;;
24663;SDS011;12791;50.992;13.788;2023-07-28T05:12:24;0.40;;;0.40;;
24663;SDS011;12791;50.992;13.788;2023-07-28T05:14:50;1.65;;;0.40;;
24663;SDS011;12791;50.992;13.788;2023-07-28T05:17:17;0.30;;;0.30;;
24663;SDS011;12791;50.992;13.788;2023-07-28T05:19:44;0.75;;;0.40;;
24663;SDS011;12791;50.992;13.788;2023-07-28T05:22:11;0.30;;;0.30;;
24663;SDS011;12791;50.992;13.788;2023-07-28T05:24:37;0.65;;;0.30;;
24663;SDS011;12791;50.992;13.788;2023-07-28T05:27:06;0.30;;;0.30;;
24663;SDS011;12791;50.992;13.788;2023-07-28T05:29:32;0.63;;;0.30;;
24663;SDS011;12791;50.992;13.788;2023-07-28T05:31:59;0.30;;;0.30;;
24663;SDS011;12791;50.992;13.788;2023-07-28T05:34:26;0.40;;;0.40;;
24663;SDS011;12791;50.992;13.788;2023-07-28T05:36:53;1.10;;;0.30;;
24663;SDS011;12791;50.992;13.788;2023-07-28T05:39:20;0.40;;;0.40;;
24663;SDS011;12791;50.992;13.788;2023-07-28T05:41:47;0.30;;;0.30;;
24663;SDS011;12791;50.992;13.788;2023-07-28T05:44:15;0.40;;;0.40;;
24663;SDS011;12791;50.992;13.788;2023-07-28T05:46:42;0.30;;;0.30;;
24663;SDS011;12791;50.992;13.788;2023-07-28T05:49:09;1.17;;;0.40;;
24663;SDS011;12791;50.992;13.788;2023-07-28T05:51:36;0.30;;;0.30;;
24663;SDS011;12791;50.992;13.788;2023-07-28T05:54:03;0.40;;;0.40;;
24663;SDS011;12791;50.992;13.788;2023-07-28T05:56:29;1.23;;;0.38;;
24663;SDS011;12791;50.992;13.788;2023-07-28T05:58:56;0.47;;;0.47;;
24663;SDS011;12791;50.992;13.788;2023-07-28T06:01:24;1.70;;;0.50;;
24663;SDS011;12791;50.992;13.788;2023-07-28T06:03:52;0.50;;;0.30;;
24663;SDS011;12791;50.992;13.788;2023-07-28T06:06:23;0.70;;;0.40;;
24663;SDS011;12791;50.992;13.788;2023-07-28T06:08:50;0.40;;;0.40;;
24663;SDS011;12791;50.992;13.788;2023-07-28T06:11:17;0.30;;;0.30;;
24663;SDS011;12791;50.992;13.788;2023-07-28T06:13:44;0.38;;;0.38;;
24663;SDS011;12791;50.992;13.788;2023-07-28T06:16:11;0.52;;;0.30;;
24663;SDS011;12791;50.992;13.788;2023-07-28T06:18:39;0.40;;;0.40;;
24663;SDS011;12791;50.992;13.788;2023-07-28T06:21:06;0.30;;;0.30;;
24663;SDS011;12791;50.992;13.788;2023-07-28T06:23:33;1.17;;;0.40;;
24663;SDS011;12791;50.992;13.788;2023-07-28T06:26:00;2.30;;;0.40;;
24663;SDS011;12791;50.992;13.788;2023-07-28T06:28:27;0.57;;;0.40;;
24663;SDS011;12791;50.992;13.788;2023-07-28T06:30:54;0.25;;;0.25;;
24663;SDS011;12791;50.992;13.788;2023-07-28T06:33:21;0.30;;;0.30;;
24663;SDS011;12791;50.992;13.788;2023-07-28T06:35:49;0.73;;;0.20;;
24663;SDS011;12791;50.992;13.788;2023-07-28T06:38:17;0.52;;;0.32;;
24663;SDS011;12791;50.992;13.788;2023-07-28T06:40:44;0.57;;;0.35;;
24663;SDS011;12791;50.992;13.788;2023-07-28T06:43:10;0.90;;;0.35;;
24663;SDS011;12791;50.992;13.788;2023-07-28T06:45:37;0.20;;;0.20;;
24663;SDS011;12791;50.992;13.788;2023-07-28T06:48:04;0.35;;;0.25;;
24663;SDS011;12791;50.992;13.788;2023-07-28T06:50:31;0.20;;;0.20;;
24663;SDS011;12791;50.992;13.788;2023-07-28T06:52:59;0.80;;;0.40;;
24663;SDS011;12791;50.992;13.788;2023-07-28T06:55:26;0.20;;;0.20;;
24663;SDS011;12791;50.992;13.788;2023-07-28T06:57:53;0.70;;;0.30;;
24663;SDS011;12791;50.992;13.788;2023-07-28T07:00:19;0.30;;;0.30;;
24663;SDS011;12791;50.992;13.788;2023-07-28T07:02:46;0.20;;;0.20;;
24663;SDS011;12791;50.992;13.788;2023-07-28T07:05:13;0.98;;;0.28;;
24663;SDS011;12791;50.992;13.788;2023-07-28T07:07:40;0.20;;;0.17;;
24663;SDS011;12791;50.992;13.788;2023-07-28T07:10:09;0.10;;;0.10;;
24663;SDS011;12791;50.992;13.788;2023-07-28T07:12:36;0.63;;;0.28;;
24663;SDS011;12791;50.992;13.788;2023-07-28T07:15:03;0.50;;;0.20;;
24663;SDS011;12791;50.992;13.788;2023-07-28T07:17:31;0.45;;;0.22;;
24663;SDS011;12791;50.992;13.788;2023-07-28T07:19:57;1.38;;;0.20;;
24663;SDS011;12791;50.992;13.788;2023-07-28T07:22:24;0.20;;;0.20;;
24663;SDS011;12791;50.992;13.788;2023-07-28T07:24:53;0.30;;;0.30;;
24663;SDS011;12791;50.992;13.788;2023-07-28T07:27:22;0.22;;;0.22;;
24663;SDS011;12791;50.992;13.788;2023-07-28T07:29:50;1.02;;;0.20;;
24663;SDS011;12791;50.992;13.788;2023-07-28T07:32:16;1.40;;;0.20;;
24663;SDS011;12791;50.992;13.788;2023-07-28T07:34:43;0.20;;;0.20;;
24663;SDS011;12791;50.992;13.788;2023-07-28T07:37:10;0.30;;;0.22;;
24663;SDS011;12791;50.992;13.788;2023-07-28T07:39:37;0.90;;;0.20;;
24663;SDS011;12791;50.992;13.788;2023-07-28T07:42:06;0.30;;;0.30;;
24663;SDS011;12791;50.992;13.788;2023-07-28T07:44:34;0.52;;;0.10;;
24663;SDS011;12791;50.992;13.788;2023-07-28T07:47:01;0.95;;;0.20;;
24663;SDS011;12791;50.992;13.788;2023-07-28T07:49:38;0.20;;;0.20;;
24663;SDS011;12791;50.992;13.788;2023-07-28T07:52:06;0.57;;;0.10;;
24663;SDS011;12791;50.992;13.788;2023-07-28T07:54:33;0.20;;;0.20;;
24663;SDS011;12791;50.992;13.788;2023-07-28T07:57:00;0.20;;;0.20;;
24663;SDS011;12791;50.992;13.788;2023-07-28T07:59:26;0.57;;;0.20;;
24663;SDS011;12791;50.992;13.788;2023-07-28T08:01:57;0.22;;;0.17;;
24663;SDS011;12791;50.992;13.788;2023-07-28T08:04:25;1.30;;;0.20;;
24663;SDS011;12791;50.992;13.788;2023-07-28T08:06:52;0.30;;;0.30;;
24663;SDS011;12791;50.992;13.788;2023-07-28T08:09:19;0.45;;;0.45;;
24663;SDS011;12791;50.992;13.788;2023-07-28T08:11:46;0.40;;;0.40;;
24663;SDS011;12791;50.992;13.788;2023-07-28T08:14:13;0.20;;;0.20;;
24663;SDS011;12791;50.992;13.788;2023-07-28T08:16:40;0.20;;;0.20;;
24663;SDS011;12791;50.992;13.788;2023-07-28T08:19:08;0.55;;;0.10;;
24663;SDS011;12791;50.992;13.788;2023-07-28T08:21:35;0.20;;;0.20;;
24663;SDS011;12791;50.992;13.788;2023-07-28T08:24:02;0.10;;;0.10;;
24663;SDS011;12791;50.992;13.788;2023-07-28T08:26:29;0.10;;;0.10;;
24663;SDS011;12791;50.992;13.788;2023-07-28T08:28:55;1.02;;;0.20;;
24663;SDS011;12791;50.992;13.788;2023-07-28T08:31:22;0.20;;;0.20;;
24663;SDS011;12791;50.992;13.788;2023-07-28T08:33:49;0.10;;;0.10;;
24663;SDS011;12791;50.992;13.788;2023-07-28T08:36:17;0.10;;;0.10;;
24663;SDS011;12791;50.992;13.788;2023-07-28T08:38:44;0.10;;;0.10;;
24663;SDS011;12791;50.992;13.788;2023-07-28T08:41:10;0.25;;;0.20;;
24663;SDS011;12791;50.992;13.788;2023-07-28T08:43:38;0.20;;;0.20;;
24663;SDS011;12791;50.992;13.788;2023-07-28T08:46:05;0.20;;;0.20;;
24663;SDS011;12791;50.992;13.788;2023-07-28T08:48:32;0.20;;;0.20;;
24663;SDS011;12791;50.992;13.788;2023-07-28T08:50:58;0.40;;;0.20;;
24663;SDS011;12791;50.992;13.788;2023-07-28T08:53:26;0.55;;;0.30;;
24663;SDS011;12791;50.992;13.788;2023-07-28T08:55:53;0.25;;;0.25;;
24663;SDS011;12791;50.992;13.788;2023-07-28T08:58:20;0.30;;;0.20;;
24663;SDS011;12791;50.992;13.788;2023-07-28T09:00:49;0.20;;;0.20;;
24663;SDS011;12791;50.992;13.788;2023-07-28T09:03:17;0.38;;;0.30;;
24663;SDS011;12791;50.992;13.788;2023-07-28T09:05:44;0.20;;;0.20;;
24663;SDS011;12791;50.992;13.788;2023-07-28T09:08:12;0.20;;;0.20;;
24663;SDS011;12791;50.992;13.788;2023-07-28T09:10:44;0.20;;;0.20;;
24663;SDS011;12791;50.992;13.788;2023-07-28T09:13:12;0.20;;;0.20;;
24663;SDS011;12791;50.992;13.788;2023-07-28T09:15:39;0.65;;;0.20;;
24663;SDS011;12791;50.992;13.788;2023-07-28T09:18:07;0.17;;;0.17;;
24663;SDS011;12791;50.992;13.788;2023-07-28T09:20:35;0.25;;;0.25;;
24663;SDS011;12791;50.992;13.788;2023-07-28T09:23:03;0.20;;;0.20;;
24663;SDS011;12791;50.992;13.788;2023-07-28T09:25:30;0.30;;;0.30;;
24663;SDS011;12791;50.992;13.788;2023-07-28T09:27:59;0.22;;;0.10;;
24663;SDS011;12791;50.992;13.788;2023-07-28T09:30:26;0.32;;;0.20;;
24663;SDS011;12791;50.992;13.788;2023-07-28T09:32:54;0.47;;;0.20;;
24663;SDS011;12791;50.992;13.788;2023-07-28T09:35:21;0.20;;;0.20;;
24663;SDS011;12791;50.992;13.788;2023-07-28T09:37:49;1.70;;;0.20;;
24663;SDS011;12791;50.992;13.788;2023-07-28T09:40:18;0.68;;;0.13;;
24663;SDS011;12791;50.992;13.788;2023-07-28T09:42:46;0.20;;;0.20;;
24663;SDS011;12791;50.992;13.788;2023-07-28T09:45:17;0.52;;;0.20;;
24663;SDS011;12791;50.992;13.788;2023-07-28T09:47:44;0.28;;;0.20;;
24663;SDS011;12791;50.992;13.788;2023-07-28T09:50:13;0.30;;;0.30;;
24663;SDS011;12791;50.992;13.788;2023-07-28T09:52:43;2.10;;;0.20;;
24663;SDS011;12791;50.992;13.788;2023-07-28T09:55:12;0.15;;;0.15;;
24663;SDS011;12791;50.992;13.788;2023-07-28T09:57:44;0.10;;;0.10;;
24663;SDS011;12791;50.992;13.788;2023-07-28T10:00:13;0.20;;;0.20;;
24663;SDS011;12791;50.992;13.788;2023-07-28T10:02:43;0.10;;;0.10;;
24663;SDS011;12791;50.992;13.788;2023-07-28T10:05:11;0.20;;;0.20;;
24663;SDS011;12791;50.992;13.788;2023-07-28T10:07:40;0.17;;;0.17;;
24663;SDS011;12791;50.992;13.788;2023-07-28T10:10:09;0.20;;;0.20;;
24663;SDS011;12791;50.992;13.788;2023-07-28T10:12:40;0.95;;;0.20;;
24663;SDS011;12791;50.992;13.788;2023-07-28T10:15:11;0.22;;;0.20;;
24663;SDS011;12791;50.992;13.788;2023-07-28T10:17:42;0.10;;;0.10;;
24663;SDS011;12791;50.992;13.788;2023-07-28T10:20:26;0.10;;;0.10;;
24663;SDS011;12791;50.992;13.788;2023-07-28T10:23:01;0.20;;;0.10;;
24663;SDS011;12791;50.992;13.788;2023-07-28T10:25:30;0.13;;;0.13;;
24663;SDS011;12791;50.992;13.788;2023-07-28T10:27:59;0.55;;;0.10;;
24663;SDS011;12791;50.992;13.788;2023-07-28T10:30:27;0.30;;;0.10;;
24663;SDS011;12791;50.992;13.788;2023-07-28T10:32:55;0.47;;;0.10;;
24663;SDS011;12791;50.992;13.788;2023-07-28T10:35:23;0.10;;;0.10;;
24663;SDS011;12791;50.992;13.788;2023-07-28T10:37:51;0.17;;;0.10;;
24663;SDS011;12791;50.992;13.788;2023-07-28T10:40:21;0.10;;;0.10;;
24663;SDS011;12791;50.992;13.788;2023-07-28T10:42:49;0.10;;;0.10;;
24663;SDS011;12791;50.992;13.788;2023-07-28T10:45:17;0.13;;;0.10;;
24663;SDS011;12791;50.992;13.788;2023-07-28T10:47:44;1.08;;;0.20;;
24663;SDS011;12791;50.992;13.788;2023-07-28T10:50:14;0.25;;;0.20;;
24663;SDS011;12791;50.992;13.788;2023-07-28T10:52:41;0.52;;;0.10;;
24663;SDS011;12791;50.992;13.788;2023-07-28T10:55:11;0.10;;;0.10;;
24663;SDS011;12791;50.992;13.788;2023-07-28T10:57:40;0.10;;;0.10;;
24663;SDS011;12791;50.992;13.788;2023-07-28T11:00:08;0.10;;;0.10;;
24663;SDS011;12791;50.992;13.788;2023-07-28T11:02:37;1.05;;;0.20;;
24663;SDS011;12791;50.992;13.788;2023-07-28T11:05:06;0.20;;;0.20;;
24663;SDS011;12791;50.992;13.788;2023-07-28T11:07:37;0.13;;;0.13;;
24663;SDS011;12791;50.992;13.788;2023-07-28T11:10:04;0.32;;;0.32;;
24663;SDS011;12791;50.992;13.788;2023-07-28T11:12:32;1.40;;;0.35;;
24663;SDS011;12791;50.992;13.788;2023-07-28T11:14:59;0.52;;;0.20;;
24663;SDS011;12791;50.992;13.788;2023-07-28T11:17:26;0.10;;;0.10;;
24663;SDS011;12791;50.992;13.788;2023-07-28T11:19:53;0.20;;;0.20;;
24663;SDS011;12791;50.992;13.788;2023-07-28T11:22:21;0.20;;;0.20;;
24663;SDS011;12791;50.992;13.788;2023-07-28T11:24:51;0.30;;;0.20;;
24663;SDS011;12791;50.992;13.788;2023-07-28T11:27:18;0.15;;;0.15;;
24663;SDS011;12791;50.992;13.788;2023-07-28T11:29:45;0.20;;;0.20;;
24663;SDS011;12791;50.992;13.788;2023-07-28T11:32:14;0.20;;;0.20;;
24663;SDS011;12791;50.992;13.788;2023-07-28T11:34:42;0.30;;;0.30;;
24663;SDS011;12791;50.992;13.788;2023-07-28T11:37:10;0.10;;;0.10;;
24663;SDS011;12791;50.992;13.788;2023-07-28T11:39:38;1.65;;;0.20;;
24663;SDS011;12791;50.992;13.788;2023-07-28T11:42:07;0.20;;;0.20;;
24663;SDS011;12791;50.992;13.788;2023-07-28T11:44:35;0.10;;;0.10;;
24663;SDS011;12791;50.992;13.788;2023-07-28T11:47:04;1.75;;;0.20;;
24663;SDS011;12791;50.992;13.788;2023-07-28T11:49:31;0.20;;;0.20;;
24663;SDS011;12791;50.992;13.788;2023-07-28T11:51:58;0.20;;;0.13;;
24663;SDS011;12791;50.992;13.788;2023-07-28T11:54:25;0.20;;;0.20;;
24663;SDS011;12791;50.992;13.788;2023-07-28T11:56:54;1.45;;;1.35;;
24663;SDS011;12791;50.992;13.788;2023-07-28T11:59:23;0.40;;;0.40;;
24663;SDS011;12791;50.992;13.788;2023-07-28T12:01:51;0.28;;;0.28;;
24663;SDS011;12791;50.992;13.788;2023-07-28T12:04:19;0.75;;;0.30;;
24663;SDS011;12791;50.992;13.788;2023-07-28T12:07:02;0.85;;;0.28;;
24663;SDS011;12791;50.992;13.788;2023-07-28T12:09:31;0.43;;;0.30;;
24663;SDS011;12791;50.992;13.788;2023-07-28T12:11:58;0.10;;;0.10;;
24663;SDS011;12791;50.992;13.788;2023-07-28T12:14:33;0.20;;;0.20;;
24663;SDS011;12791;50.992;13.788;2023-07-28T12:17:00;0.85;;;0.20;;
24663;SDS011;12791;50.992;13.788;2023-07-28T12:19:27;0.20;;;0.20;;
24663;SDS011;12791;50.992;13.788;2023-07-28T12:21:54;0.63;;;0.20;;
24663;SDS011;12791;50.992;13.788;2023-07-28T12:24:21;0.20;;;0.20;;
24663;SDS011;12791;50.992;13.788;2023-07-28T12:26:48;0.60;;;0.30;;
24663;SDS011;12791;50.992;13.788;2023-07-28T12:29:17;0.85;;;0.22;;
24663;SDS011;12791;50.992;13.788;2023-07-28T12:31:45;0.88;;;0.35;;
24663;SDS011;12791;50.992;13.788;2023-07-28T12:34:12;0.20;;;0.20;;
24663;SDS011;12791;50.992;13.788;2023-07-28T12:36:38;0.20;;;0.20;;
24663;SDS011;12791;50.992;13.788;2023-07-28T12:39:05;1.40;;;0.40;;
24663;SDS011;12791;50.992;13.788;2023-07-28T12:41:32;0.47;;;0.30;;
24663;SDS011;12791;50.992;13.788;2023-07-28T12:43:59;0.20;;;0.20;;
24663;SDS011;12791;50.992;13.788;2023-07-28T12:46:26;0.35;;;0.35;;
24663;SDS011;12791;50.992;13.788;2023-07-28T12:48:54;0.73;;;0.20;;
24663;SDS011;12791;50.992;13.788;2023-07-28T12:51:20;0.20;;;0.20;;
24663;SDS011;12791;50.992;13.788;2023-07-28T12:53:47;0.90;;;0.20;;
24663;SDS011;12791;50.992;13.788;2023-07-28T12:56:14;0.32;;;0.25;;
24663;SDS011;12791;50.992;13.788;2023-07-28T12:58:41;0.20;;;0.20;;
24663;SDS011;12791;50.992;13.788;2023-07-28T13:01:07;0.60;;;0.20;;
24663;SDS011;12791;50.992;13.788;2023-07-28T13:03:36;0.20;;;0.20;;
24663;SDS011;12791;50.992;13.788;2023-07-28T13:06:05;0.20;;;0.20;;
24663;SDS011;12791;50.992;13.788;2023-07-28T13:08:32;0.20;;;0.20;;
24663;SDS011;12791;50.992;13.788;2023-07-28T13:10:58;0.20;;;0.20;;
24663;SDS011;12791;50.992;13.788;2023-07-28T13:13:25;0.30;;;0.30;;
24663;SDS011;12791;50.992;13.788;2023-07-28T13:15:54;0.45;;;0.30;;
24663;SDS011;12791;50.992;13.788;2023-07-28T13:18:23;0.30;;;0.30;;
24663;SDS011;12791;50.992;13.788;2023-07-28T13:20:50;1.08;;;0.30;;
24663;SDS011;12791;50.992;13.788;2023-07-28T13:23:18;1.15;;;0.30;;
24663;SDS011;12791;50.992;13.788;2023-07-28T13:25:45;1.45;;;0.30;;
24663;SDS011;12791;50.992;13.788;2023-07-28T13:28:12;0.30;;;0.30;;
24663;SDS011;12791;50.992;13.788;2023-07-28T13:30:39;0.30;;;0.20;;
24663;SDS011;12791;50.992;13.788;2023-07-28T13:33:06;0.30;;;0.30;;
24663;SDS011;12791;50.992;13.788;2023-07-28T13:35:33;0.30;;;0.30;;
24663;SDS011;12791;50.992;13.788;2023-07-28T13:38:00;0.30;;;0.30;;
24663;SDS011;12791;50.992;13.788;2023-07-28T13:40:28;0.28;;;0.28;;
24663;SDS011;12791;50.992;13.788;2023-07-28T13:42:55;0.70;;;0.30;;
24663;SDS011;12791;50.992;13.788;2023-07-28T13:45:21;1.40;;;0.30;;
24663;SDS011;12791;50.992;13.788;2023-07-28T13:47:48;0.30;;;0.30;;
24663;SDS011;12791;50.992;13.788;2023-07-28T13:50:15;0.30;;;0.30;;
24663;SDS011;12791;50.992;13.788;2023-07-28T13:52:42;0.30;;;0.30;;
24663;SDS011;12791;50.992;13.788;2023-07-28T13:55:08;0.20;;;0.20;;
24663;SDS011;12791;50.992;13.788;2023-07-28T13:57:36;0.30;;;0.30;;
24663;SDS011;12791;50.992;13.788;2023-07-28T14:00:04;0.20;;;0.20;;
24663;SDS011;12791;50.992;13.788;2023-07-28T14:02:34;0.35;;;0.30;;
24663;SDS011;12791;50.992;13.788;2023-07-28T14:05:00;1.05;;;0.30;;
24663;SDS011;12791;50.992;13.788;2023-07-28T14:07:27;0.30;;;0.30;;
24663;SDS011;12791;50.992;13.788;2023-07-28T14:09:54;0.30;;;0.30;;
24663;SDS011;12791;50.992;13.788;2023-07-28T14:12:21;2.20;;;0.20;;
24663;SDS011;12791;50.992;13.788;2023-07-28T14:14:49;0.20;;;0.20;;
24663;SDS011;12791;50.992;13.788;2023-07-28T14:17:15;0.55;;;0.20;;
24663;SDS011;12791;50.992;13.788;2023-07-28T14:19:42;0.65;;;0.20;;
24663;SDS011;12791;50.992;13.788;2023-07-28T14:22:09;1.10;;;0.30;;
24663;SDS011;12791;50.992;13.788;2023-07-28T14:24:36;0.98;;;0.30;;
24663;SDS011;12791;50.992;13.788;2023-07-28T14:27:03;0.40;;;0.32;;
24663;SDS011;12791;50.992;13.788;2023-07-28T14:29:30;0.38;;;0.38;;
24663;SDS011;12791;50.992;13.788;2023-07-28T14:31:58;0.30;;;0.20;;
24663;SDS011;12791;50.992;13.788;2023-07-28T14:34:25;0.20;;;0.20;;